Time;durP1;ratioP1;P1;durP2;ratioP2;P2;SDS_P1;SDS_P2;PMS_P1;PMS_P2;Temp;Humidity;BMP_temperature;BMP_pressure;BME280_temperature;BME280_humidity;BME280_pressure;Samples;Min_cycle;Max_cycle;Signal;HPM_P1;HPM_P2
2021/11/26 00:00:45;;;;;;;7.90;2.10;;;;;;;;;;5011838;28;20060;-56
2021/11/26 00:03:15;;;;;;;4.20;1.20;;;;;;;;;;5012120;28;20139;-56
2021/11/26 00:05:40;;;;;;;4.43;1.27;;;;;;;;;;4976181;28;20044;-57
2021/11/26 00:08:08;;;;;;;7.95;1.58;;;;;;;;;;5010410;28;20113;-57
2021/11/26 00:10:36;;;;;;;1.73;1.20;;;;;;;;;;5006099;28;20136;-57
2021/11/26 00:13:06;;;;;;;4.00;1.17;;;;;;;;;;5009807;28;20031;-56
2021/11/26 00:18:05;;;;;;;8.00;1.55;;;;;;;;;;5012445;28;20036;-57
2021/11/26 00:20:35;;;;;;;4.07;0.73;;;;;;;;;;4991756;28;20926;-57
2021/11/26 00:23:03;;;;;;;6.00;1.50;;;;;;;;;;5011233;28;20033;-57
2021/11/26 00:25:34;;;;;;;3.35;0.90;;;;;;;;;;4993352;28;20097;-58
2021/11/26 00:28:02;;;;;;;2.15;0.80;;;;;;;;;;5006355;28;20515;-56
2021/11/26 00:30:27;;;;;;;3.88;0.95;;;;;;;;;;5004308;28;20021;-57
2021/11/26 00:33:26;;;;;;;2.75;0.60;;;;;;;;;;5007253;28;20065;-56
2021/11/26 00:35:58;;;;;;;0.82;0.65;;;;;;;;;;5003539;28;20053;-56
2021/11/26 00:38:26;;;;;;;2.67;0.73;;;;;;;;;;5009780;28;20036;-56
2021/11/26 00:40:54;;;;;;;4.57;0.50;;;;;;;;;;5013827;28;21395;-56
2021/11/26 00:43:22;;;;;;;5.75;0.80;;;;;;;;;;5015431;28;20053;-56
2021/11/26 00:45:49;;;;;;;11.18;1.08;;;;;;;;;;4997472;28;20026;-57
2021/11/26 00:48:15;;;;;;;1.25;0.28;;;;;;;;;;5014556;28;20040;-57
2021/11/26 00:50:45;;;;;;;1.92;0.50;;;;;;;;;;4992659;28;20049;-56
2021/11/26 00:53:13;;;;;;;2.53;0.93;;;;;;;;;;5007859;28;20110;-57
2021/11/26 00:55:39;;;;;;;3.90;1.98;;;;;;;;;;4986742;28;20033;-56
2021/11/26 00:58:10;;;;;;;2.65;1.52;;;;;;;;;;5011052;28;20041;-56
2021/11/26 01:00:37;;;;;;;4.30;1.70;;;;;;;;;;5015855;28;20514;-56
2021/11/26 01:03:05;;;;;;;4.28;1.42;;;;;;;;;;5008207;28;20576;-57
2021/11/26 01:05:33;;;;;;;3.38;0.98;;;;;;;;;;5001111;28;20068;-56
2021/11/26 01:08:01;;;;;;;5.25;1.15;;;;;;;;;;4997128;28;20033;-56
2021/11/26 01:10:27;;;;;;;6.47;1.02;;;;;;;;;;4996816;28;20088;-57
2021/11/26 01:12:55;;;;;;;3.08;1.40;;;;;;;;;;4980519;28;20624;-55
2021/11/26 01:15:24;;;;;;;9.15;1.70;;;;;;;;;;4975907;28;20042;-56
2021/11/26 01:17:50;;;;;;;5.13;1.05;;;;;;;;;;4999433;28;20040;-56
2021/11/26 01:20:17;;;;;;;7.47;1.58;;;;;;;;;;4993318;28;20038;-57
2021/11/26 01:22:45;;;;;;;6.40;1.27;;;;;;;;;;4999123;28;20619;-57
2021/11/26 01:25:13;;;;;;;8.32;1.60;;;;;;;;;;4980276;28;20087;-56
2021/11/26 01:27:42;;;;;;;7.25;1.20;;;;;;;;;;4978355;28;20137;-58
2021/11/26 01:30:15;;;;;;;3.88;0.93;;;;;;;;;;4997565;28;20036;-57
2021/11/26 01:32:41;;;;;;;4.78;1.48;;;;;;;;;;4963443;28;20365;-58
2021/11/26 01:35:11;;;;;;;1.98;0.93;;;;;;;;;;4982224;28;20421;-56
2021/11/26 01:37:43;;;;;;;1.42;0.85;;;;;;;;;;4979950;28;20115;-57
2021/11/26 01:40:08;;;;;;;7.57;1.05;;;;;;;;;;4977349;28;20113;-56
2021/11/26 01:42:36;;;;;;;12.07;0.90;;;;;;;;;;4975982;28;20049;-58
2021/11/26 01:45:02;;;;;;;5.60;0.88;;;;;;;;;;4999636;28;20036;-57
2021/11/26 01:47:32;;;;;;;4.95;1.08;;;;;;;;;;5000149;28;20490;-60
2021/11/26 01:50:00;;;;;;;5.65;1.15;;;;;;;;;;4997393;28;20389;-57
2021/11/26 01:52:28;;;;;;;6.25;0.85;;;;;;;;;;4999146;28;20115;-57
2021/11/26 01:54:53;;;;;;;4.90;1.05;;;;;;;;;;4995926;28;20096;-57
2021/11/26 01:57:21;;;;;;;1.08;0.70;;;;;;;;;;4997890;28;20018;-58
2021/11/26 01:59:50;;;;;;;12.40;1.50;;;;;;;;;;4996153;28;20033;-56
2021/11/26 02:02:19;;;;;;;8.43;0.90;;;;;;;;;;4998225;28;20076;-57
2021/11/26 02:04:47;;;;;;;2.70;0.52;;;;;;;;;;4976426;28;20500;-58
2021/11/26 02:07:17;;;;;;;2.88;0.52;;;;;;;;;;4999187;28;20045;-57
2021/11/26 02:09:43;;;;;;;1.65;0.95;;;;;;;;;;4998253;28;20056;-58
2021/11/26 02:12:09;;;;;;;4.38;0.25;;;;;;;;;;4977768;28;20046;-57
2021/11/26 02:18:16;;;;;;;3.45;0.65;;;;;;;;;;4997970;28;20100;-58
2021/11/26 02:20:47;;;;;;;6.18;0.52;;;;;;;;;;4999211;28;20029;-57
2021/11/26 02:23:14;;;;;;;0.30;0.30;;;;;;;;;;4998079;28;20039;-58
2021/11/26 02:25:43;;;;;;;2.95;0.60;;;;;;;;;;4975447;28;20922;-56
2021/11/26 02:28:10;;;;;;;10.48;0.60;;;;;;;;;;4994431;28;20167;-57
2021/11/26 02:30:40;;;;;;;3.78;0.52;;;;;;;;;;4991960;28;20033;-58
2021/11/26 02:33:10;;;;;;;0.95;0.30;;;;;;;;;;4997354;28;20084;-58
2021/11/26 02:35:41;;;;;;;1.95;0.30;;;;;;;;;;4987615;28;20120;-57
2021/11/26 02:38:10;;;;;;;5.28;0.52;;;;;;;;;;4995909;28;20083;-58
2021/11/26 02:40:36;;;;;;;4.93;0.65;;;;;;;;;;4980041;28;20034;-57
2021/11/26 02:43:02;;;;;;;3.50;0.38;;;;;;;;;;4995185;28;20052;-56
2021/11/26 02:45:32;;;;;;;2.83;0.60;;;;;;;;;;4996922;28;20038;-57
2021/11/26 02:48:02;;;;;;;1.95;0.52;;;;;;;;;;4996542;28;20038;-58
2021/11/26 02:50:32;;;;;;;0.50;0.40;;;;;;;;;;4997793;28;20117;-58
2021/11/26 02:52:59;;;;;;;4.55;0.68;;;;;;;;;;4979260;28;20037;-57
2021/11/26 02:55:25;;;;;;;5.85;0.65;;;;;;;;;;4991226;28;20478;-57
2021/11/26 02:57:53;;;;;;;4.22;0.40;;;;;;;;;;4993610;28;20060;-57
2021/11/26 03:00:24;;;;;;;2.10;0.57;;;;;;;;;;4994231;28;20105;-58
2021/11/26 03:02:52;;;;;;;1.83;0.50;;;;;;;;;;4977291;28;20049;-58
2021/11/26 03:05:20;;;;;;;1.85;0.45;;;;;;;;;;4957882;28;20396;-58
2021/11/26 03:07:50;;;;;;;2.58;0.88;;;;;;;;;;4991125;28;20042;-59
2021/11/26 03:10:17;;;;;;;3.40;0.30;;;;;;;;;;4992782;28;20045;-58
2021/11/26 03:12:44;;;;;;;3.05;0.75;;;;;;;;;;4993352;28;20131;-57
2021/11/26 03:15:10;;;;;;;4.50;0.52;;;;;;;;;;4988267;28;20034;-58
2021/11/26 03:17:38;;;;;;;3.25;0.60;;;;;;;;;;4986915;28;20087;-57
2021/11/26 03:20:06;;;;;;;3.83;0.45;;;;;;;;;;4991514;28;20777;-57
2021/11/26 03:22:31;;;;;;;1.23;0.63;;;;;;;;;;4973309;28;20048;-57
2021/11/26 03:25:02;;;;;;;3.92;0.43;;;;;;;;;;4991672;28;20033;-58
2021/11/26 03:27:29;;;;;;;1.48;0.20;;;;;;;;;;4991059;28;20040;-56
2021/11/26 03:29:55;;;;;;;3.10;0.80;;;;;;;;;;4988373;28;20121;-57
2021/11/26 03:32:21;;;;;;;5.30;0.75;;;;;;;;;;4989196;28;20106;-56
2021/11/26 03:34:46;;;;;;;0.55;0.40;;;;;;;;;;4970198;28;20064;-56
2021/11/26 03:37:12;;;;;;;1.85;0.28;;;;;;;;;;4991347;28;20113;-55
2021/11/26 03:39:40;;;;;;;3.70;0.68;;;;;;;;;;4987811;28;20044;-56
2021/11/26 03:42:06;;;;;;;9.68;0.65;;;;;;;;;;4991407;28;20065;-56
2021/11/26 03:44:34;;;;;;;2.90;0.55;;;;;;;;;;4986827;28;20156;-56
2021/11/26 03:47:00;;;;;;;3.70;0.65;;;;;;;;;;4990562;28;20495;-56
2021/11/26 03:49:28;;;;;;;3.65;0.70;;;;;;;;;;4958679;28;22219;-57
2021/11/26 03:51:53;;;;;;;4.28;0.77;;;;;;;;;;4992305;28;20029;-56
2021/11/26 03:54:19;;;;;;;4.63;1.08;;;;;;;;;;4976012;28;20087;-56
2021/11/26 03:56:47;;;;;;;2.83;0.93;;;;;;;;;;4992864;28;20025;-57
2021/11/26 03:59:15;;;;;;;7.18;1.17;;;;;;;;;;4974454;28;20088;-56
2021/11/26 04:01:42;;;;;;;3.42;0.70;;;;;;;;;;4988615;28;20037;-56
2021/11/26 04:04:08;;;;;;;1.13;0.43;;;;;;;;;;4981745;28;22066;-57
2021/11/26 04:06:38;;;;;;;5.05;0.70;;;;;;;;;;4993121;28;20041;-57
2021/11/26 04:09:10;;;;;;;2.38;1.48;;;;;;;;;;5008846;28;20037;-56
2021/11/26 04:11:35;;;;;;;2.17;0.85;;;;;;;;;;5011106;28;20444;-56
2021/11/26 04:14:03;;;;;;;0.50;0.50;;;;;;;;;;4976844;28;20030;-57
2021/11/26 04:20:05;;;;;;;3.78;1.38;;;;;;;;;;5015241;28;20064;-57
2021/11/26 04:22:33;;;;;;;4.20;2.08;;;;;;;;;;4997015;28;20033;-57
2021/11/26 04:25:00;;;;;;;6.22;1.85;;;;;;;;;;5017964;28;20021;-56
2021/11/26 04:27:26;;;;;;;4.40;3.10;;;;;;;;;;4979669;28;20153;-57
2021/11/26 04:29:57;;;;;;;4.00;2.45;;;;;;;;;;4994182;28;20026;-56
2021/11/26 04:32:27;;;;;;;6.95;1.98;;;;;;;;;;4997680;28;20033;-55
2021/11/26 04:34:53;;;;;;;4.07;2.38;;;;;;;;;;5011494;28;20029;-56
2021/11/26 04:37:19;;;;;;;4.63;2.13;;;;;;;;;;5010587;28;20030;-57
2021/11/26 04:39:46;;;;;;;9.55;2.58;;;;;;;;;;5013471;28;20029;-57
2021/11/26 04:42:16;;;;;;;9.88;2.10;;;;;;;;;;5016185;28;20033;-57
2021/11/26 04:44:47;;;;;;;5.07;1.42;;;;;;;;;;5013836;28;20028;-58
2021/11/26 04:47:13;;;;;;;2.97;1.00;;;;;;;;;;5016703;28;20037;-57
2021/11/26 04:49:38;;;;;;;14.20;1.40;;;;;;;;;;5017733;28;20036;-57
2021/11/26 04:52:07;;;;;;;2.05;0.75;;;;;;;;;;4997785;28;20122;-56
2021/11/26 04:54:34;;;;;;;3.92;0.65;;;;;;;;;;4996095;28;20029;-56
2021/11/26 04:57:02;;;;;;;2.67;0.77;;;;;;;;;;4998211;28;20040;-57
2021/11/26 04:59:27;;;;;;;3.80;0.68;;;;;;;;;;5016377;28;20037;-57
2021/11/26 05:01:55;;;;;;;3.60;0.77;;;;;;;;;;5011781;28;20044;-56
2021/11/26 05:04:24;;;;;;;0.63;0.30;;;;;;;;;;5015386;28;20155;-57
2021/11/26 05:06:52;;;;;;;1.05;0.52;;;;;;;;;;4951900;28;20120;-57
2021/11/26 05:09:22;;;;;;;4.07;0.45;;;;;;;;;;5012754;28;20038;-57
2021/11/26 05:11:50;;;;;;;6.30;0.80;;;;;;;;;;4977250;28;20061;-57
2021/11/26 05:14:23;;;;;;;1.15;0.57;;;;;;;;;;4995401;28;20025;-57
2021/11/26 05:16:54;;;;;;;1.65;0.20;;;;;;;;;;5016197;28;20488;-57
2021/11/26 05:19:20;;;;;;;4.20;0.50;;;;;;;;;;5016538;28;20033;-57
2021/11/26 05:21:47;;;;;;;1.27;0.35;;;;;;;;;;4996107;28;20143;-57
2021/11/26 05:24:15;;;;;;;4.75;0.77;;;;;;;;;;4994190;28;20024;-57
2021/11/26 05:26:43;;;;;;;2.78;0.80;;;;;;;;;;5015395;28;20079;-58
2021/11/26 05:29:13;;;;;;;1.30;1.08;;;;;;;;;;4998363;28;20072;-58
2021/11/26 05:31:42;;;;;;;9.30;1.10;;;;;;;;;;5014429;28;20037;-57
2021/11/26 05:34:08;;;;;;;5.40;0.80;;;;;;;;;;4995894;28;20036;-58
2021/11/26 05:36:36;;;;;;;14.68;0.80;;;;;;;;;;4996077;28;20037;-57
2021/11/26 05:39:03;;;;;;;10.00;1.10;;;;;;;;;;4979943;28;20032;-57
2021/11/26 05:41:29;;;;;;;5.75;0.70;;;;;;;;;;5015000;28;20091;-56
2021/11/26 05:43:54;;;;;;;2.40;0.85;;;;;;;;;;4974675;28;20113;-57
2021/11/26 05:46:25;;;;;;;1.75;0.63;;;;;;;;;;4997678;28;20121;-56
2021/11/26 05:48:55;;;;;;;0.43;0.22;;;;;;;;;;4974479;28;20042;-56
2021/11/26 05:51:21;;;;;;;7.15;0.50;;;;;;;;;;5011907;28;20095;-57
2021/11/26 05:53:49;;;;;;;0.47;0.35;;;;;;;;;;4994751;28;20038;-57
2021/11/26 05:56:19;;;;;;;0.80;0.65;;;;;;;;;;5012156;28;20025;-56
2021/11/26 05:58:47;;;;;;;0.95;0.30;;;;;;;;;;4995643;28;20033;-56
2021/11/26 06:01:15;;;;;;;2.97;0.57;;;;;;;;;;4994148;28;20076;-58
2021/11/26 06:03:41;;;;;;;3.25;0.68;;;;;;;;;;4994209;28;20063;-56
2021/11/26 06:06:09;;;;;;;7.97;1.50;;;;;;;;;;4995483;28;20141;-57
2021/11/26 06:08:37;;;;;;;2.70;1.17;;;;;;;;;;5012344;28;20068;-56
2021/11/26 06:11:07;;;;;;;3.38;1.15;;;;;;;;;;5012808;28;20041;-58
2021/11/26 06:13:37;;;;;;;3.17;0.60;;;;;;;;;;4994966;28;20037;-55
2021/11/26 06:16:07;;;;;;;0.38;0.35;;;;;;;;;;4994542;28;20029;-57
2021/11/26 06:18:33;;;;;;;3.25;0.90;;;;;;;;;;4995660;28;20045;-57
2021/11/26 06:21:24;;;;;;;9.23;0.80;;;;;;;;;;5012358;28;20044;-57
2021/11/26 06:23:50;;;;;;;2.30;0.32;;;;;;;;;;5011514;28;20120;-56
2021/11/26 06:26:15;;;;;;;4.00;0.45;;;;;;;;;;5014285;28;20025;-57
2021/11/26 06:28:46;;;;;;;4.35;0.70;;;;;;;;;;4978385;28;20041;-56
2021/11/26 06:34:49;;;;;;;7.47;1.00;;;;;;;;;;5013245;28;20127;-58
2021/11/26 06:37:14;;;;;;;3.72;0.80;;;;;;;;;;4994745;28;20036;-57
2021/11/26 06:39:42;;;;;;;2.20;1.13;;;;;;;;;;4994990;28;20025;-56
2021/11/26 06:42:07;;;;;;;1.00;0.70;;;;;;;;;;4992379;28;20228;-57
2021/11/26 06:44:37;;;;;;;1.35;0.70;;;;;;;;;;5010516;28;20033;-57
2021/11/26 06:47:08;;;;;;;0.95;0.65;;;;;;;;;;4996077;28;20499;-58
2021/11/26 06:49:36;;;;;;;7.78;0.70;;;;;;;;;;4997331;28;20029;-58
2021/11/26 06:52:06;;;;;;;2.40;0.57;;;;;;;;;;4980066;28;21963;-55
2021/11/26 06:54:34;;;;;;;1.52;0.65;;;;;;;;;;4993908;28;20038;-57
2021/11/26 06:57:04;;;;;;;7.78;0.85;;;;;;;;;;4993117;28;20033;-57
2021/11/26 06:59:33;;;;;;;4.82;1.38;;;;;;;;;;4994852;28;20060;-56
2021/11/26 07:02:00;;;;;;;4.95;1.30;;;;;;;;;;4992811;28;21121;-56
2021/11/26 07:04:37;;;;;;;4.55;1.50;;;;;;;;;;4991773;28;20084;-57
2021/11/26 07:07:05;;;;;;;6.47;1.17;;;;;;;;;;5012399;28;21989;-57
2021/11/26 07:09:35;;;;;;;3.90;2.08;;;;;;;;;;5013825;28;20038;-56
2021/11/26 07:12:01;;;;;;;3.67;1.77;;;;;;;;;;4977188;28;20141;-55
2021/11/26 07:14:29;;;;;;;3.80;2.10;;;;;;;;;;5013689;28;20372;-57
2021/11/26 07:16:55;;;;;;;8.25;3.13;;;;;;;;;;4995009;28;20103;-56
2021/11/26 07:19:21;;;;;;;5.93;2.17;;;;;;;;;;4975860;28;20098;-56
2021/11/26 07:21:46;;;;;;;4.40;1.77;;;;;;;;;;4994094;28;20033;-57
2021/11/26 07:24:12;;;;;;;3.20;2.00;;;;;;;;;;5015140;28;20025;-58
2021/11/26 07:26:37;;;;;;;7.57;2.53;;;;;;;;;;5012227;28;20079;-57
2021/11/26 07:29:05;;;;;;;9.27;2.65;;;;;;;;;;4994918;28;20123;-59
2021/11/26 07:31:31;;;;;;;5.68;2.30;;;;;;;;;;5009447;28;20503;-57
2021/11/26 07:34:01;;;;;;;13.48;2.55;;;;;;;;;;4993322;28;20036;-57
2021/11/26 07:36:29;;;;;;;6.43;1.67;;;;;;;;;;4992857;28;20416;-59
2021/11/26 07:38:55;;;;;;;2.90;1.85;;;;;;;;;;5014303;28;20071;-58
2021/11/26 07:41:21;;;;;;;3.90;1.83;;;;;;;;;;5013575;28;20033;-57
2021/11/26 07:43:47;;;;;;;4.18;1.42;;;;;;;;;;4999541;28;20481;-57
2021/11/26 07:46:15;;;;;;;3.95;1.70;;;;;;;;;;4995973;28;20037;-58
2021/11/26 07:48:45;;;;;;;4.13;1.80;;;;;;;;;;5004010;28;20033;-57
2021/11/26 07:51:16;;;;;;;4.22;1.90;;;;;;;;;;5012375;28;20037;-58
2021/11/26 07:53:43;;;;;;;15.23;2.10;;;;;;;;;;4998134;28;20564;-59
2021/11/26 07:56:10;;;;;;;5.40;2.00;;;;;;;;;;5014340;28;20021;-57
2021/11/26 07:58:35;;;;;;;2.60;1.60;;;;;;;;;;5013820;28;20041;-61
2021/11/26 08:01:03;;;;;;;3.45;1.70;;;;;;;;;;5013617;28;20029;-57
2021/11/26 08:03:31;;;;;;;4.43;1.75;;;;;;;;;;5010348;28;20041;-57
2021/11/26 08:05:57;;;;;;;8.75;1.70;;;;;;;;;;4992394;28;20057;-57
2021/11/26 08:08:24;;;;;;;2.83;1.95;;;;;;;;;;5011077;28;20025;-58
2021/11/26 08:10:50;;;;;;;4.57;1.83;;;;;;;;;;4993415;28;20861;-58
2021/11/26 08:13:18;;;;;;;7.65;1.90;;;;;;;;;;5011818;28;20127;-59
2021/11/26 08:15:46;;;;;;;6.95;2.03;;;;;;;;;;4995051;28;20150;-58
2021/11/26 08:18:13;;;;;;;7.78;1.75;;;;;;;;;;4993020;28;20086;-58
2021/11/26 08:20:43;;;;;;;8.95;1.63;;;;;;;;;;4997379;28;20026;-58
2021/11/26 08:23:08;;;;;;;4.90;1.75;;;;;;;;;;5010321;28;20069;-57
2021/11/26 08:25:37;;;;;;;6.18;1.23;;;;;;;;;;4996789;28;20041;-59
2021/11/26 08:28:05;;;;;;;11.43;2.30;;;;;;;;;;5009930;28;20025;-59
2021/11/26 08:30:31;;;;;;;6.10;1.88;;;;;;;;;;4994568;28;20041;-58
2021/11/26 08:32:57;;;;;;;3.58;1.27;;;;;;;;;;4992978;28;20040;-58
2021/11/26 08:35:25;;;;;;;4.80;1.45;;;;;;;;;;5015238;28;20049;-58
2021/11/26 08:37:51;;;;;;;7.05;1.58;;;;;;;;;;4992519;28;20048;-58
2021/11/26 08:40:19;;;;;;;8.13;1.48;;;;;;;;;;4995098;28;20680;-59
2021/11/26 08:42:46;;;;;;;4.63;1.90;;;;;;;;;;5012861;28;20124;-59
2021/11/26 08:45:14;;;;;;;11.75;1.73;;;;;;;;;;5013569;28;20045;-59
2021/11/26 08:47:40;;;;;;;5.55;1.60;;;;;;;;;;4977419;28;22549;-57
2021/11/26 08:50:09;;;;;;;4.32;1.38;;;;;;;;;;5011499;28;20124;-59
2021/11/26 08:52:37;;;;;;;7.50;1.40;;;;;;;;;;4994671;28;20029;-57
2021/11/26 08:55:05;;;;;;;5.10;1.45;;;;;;;;;;4974522;28;20075;-59
2021/11/26 08:57:48;;;;;;;11.90;1.83;;;;;;;;;;5012342;28;20135;-58
2021/11/26 09:00:20;;;;;;;5.38;1.65;;;;;;;;;;4997358;28;20041;-58
2021/11/26 09:02:48;;;;;;;8.73;1.45;;;;;;;;;;5013176;28;20040;-59
2021/11/26 09:05:15;;;;;;;4.30;1.42;;;;;;;;;;5014813;28;20092;-58
2021/11/26 09:07:47;;;;;;;5.25;1.60;;;;;;;;;;5014903;28;20033;-60
2021/11/26 09:10:15;;;;;;;9.68;1.60;;;;;;;;;;4996107;28;20032;-59
2021/11/26 09:12:43;;;;;;;4.22;1.58;;;;;;;;;;4997296;28;20133;-59
2021/11/26 09:15:12;;;;;;;5.10;1.70;;;;;;;;;;5019043;28;20021;-59
2021/11/26 09:17:45;;;;;;;4.63;1.27;;;;;;;;;;5018650;28;20104;-58
2021/11/26 09:20:11;;;;;;;2.60;1.33;;;;;;;;;;5016997;28;20494;-57
2021/11/26 09:22:37;;;;;;;8.93;1.63;;;;;;;;;;5014761;28;20039;-60
2021/11/26 09:25:06;;;;;;;7.70;1.40;;;;;;;;;;4997371;28;20135;-59
2021/11/26 09:27:31;;;;;;;4.57;1.10;;;;;;;;;;5014984;28;20041;-58
2021/11/26 09:29:59;;;;;;;11.40;2.30;;;;;;;;;;5016449;28;20087;-60
2021/11/26 09:32:25;;;;;;;9.20;1.73;;;;;;;;;;5001382;28;20030;-60
2021/11/26 09:34:50;;;;;;;6.78;1.60;;;;;;;;;;5012229;28;20475;-60
2021/11/26 09:37:16;;;;;;;6.45;1.27;;;;;;;;;;4998055;28;20061;-58
2021/11/26 09:39:49;;;;;;;9.45;1.45;;;;;;;;;;5013172;28;20033;-63
2021/11/26 09:42:17;;;;;;;4.15;1.23;;;;;;;;;;4997057;28;20099;-59
2021/11/26 09:44:45;;;;;;;7.03;1.90;;;;;;;;;;4994745;28;20025;-59
2021/11/26 09:47:10;;;;;;;7.88;1.55;;;;;;;;;;4998550;28;20059;-59
2021/11/26 09:49:39;;;;;;;7.38;1.55;;;;;;;;;;5017133;28;20378;-59
2021/11/26 09:52:07;;;;;;;7.72;1.13;;;;;;;;;;5016456;28;20504;-59
2021/11/26 09:54:45;;;;;;;19.05;1.83;;;;;;;;;;5012549;28;20029;-59
2021/11/26 09:57:15;;;;;;;6.88;2.10;;;;;;;;;;4994013;28;20034;-60
2021/11/26 09:59:45;;;;;;;6.95;1.30;;;;;;;;;;5013690;28;20025;-62
2021/11/26 10:02:13;;;;;;;9.32;1.73;;;;;;;;;;4980902;28;20168;-59
2021/11/26 10:04:38;;;;;;;6.63;1.48;;;;;;;;;;5014769;28;20886;-61
2021/11/26 10:07:06;;;;;;;5.35;1.60;;;;;;;;;;5015606;28;20057;-60
2021/11/26 10:09:39;;;;;;;6.32;1.63;;;;;;;;;;4992299;28;20072;-60
2021/11/26 10:12:10;;;;;;;10.23;1.80;;;;;;;;;;5012786;28;20039;-61
2021/11/26 10:14:42;;;;;;;5.47;1.85;;;;;;;;;;5015466;28;20048;-60
2021/11/26 10:17:12;;;;;;;5.03;1.63;;;;;;;;;;5014074;28;20179;-60
2021/11/26 10:19:42;;;;;;;13.93;2.30;;;;;;;;;;5018332;28;21912;-59
2021/11/26 10:22:21;;;;;;;10.85;1.40;;;;;;;;;;4995889;28;20050;-61
2021/11/26 10:25:10;;;;;;;8.73;1.40;;;;;;;;;;5012574;28;20029;-62
2021/11/26 10:27:58;;;;;;;5.88;1.48;;;;;;;;;;5015311;28;20044;-60
2021/11/26 10:30:28;;;;;;;8.13;1.35;;;;;;;;;;5010816;28;20036;-61
2021/11/26 10:32:59;;;;;;;9.43;1.80;;;;;;;;;;5014367;28;20053;-60
2021/11/26 10:35:25;;;;;;;10.07;1.85;;;;;;;;;;5012793;28;20033;-61
2021/11/26 10:37:57;;;;;;;9.23;1.85;;;;;;;;;;5015514;28;20603;-59
2021/11/26 10:44:08;;;;;;;7.57;1.63;;;;;;;;;;5009423;28;20046;-61
2021/11/26 10:59:41;;;;;;;;;;;;;;;;;;4992263;28;20285;-58
2021/11/26 11:02:07;;;;;;;14.60;1.85;;;;;;;;;;5010425;28;19925;-59
2021/11/26 11:04:33;;;;;;;7.18;1.58;;;;;;;;;;5010197;28;20338;-59
2021/11/26 11:07:05;;;;;;;7.90;1.30;;;;;;;;;;4990499;28;20041;-58
2021/11/26 11:09:44;;;;;;;7.80;1.73;;;;;;;;;;5011808;28;20040;-59
2021/11/26 11:12:14;;;;;;;12.10;1.77;;;;;;;;;;4974199;28;20030;-60
2021/11/26 11:14:41;;;;;;;10.00;2.22;;;;;;;;;;5013591;28;20029;-59
2021/11/26 11:17:06;;;;;;;8.05;1.42;;;;;;;;;;5015223;28;20027;-58
2021/11/26 11:19:37;;;;;;;12.27;1.60;;;;;;;;;;4995668;28;20102;-58
2021/11/26 11:22:03;;;;;;;7.20;1.40;;;;;;;;;;4993312;28;20029;-59
2021/11/26 11:24:30;;;;;;;3.85;1.45;;;;;;;;;;4979033;28;20535;-59
2021/11/26 11:26:56;;;;;;;5.55;1.80;;;;;;;;;;5012412;28;20036;-59
2021/11/26 11:29:26;;;;;;;6.18;1.50;;;;;;;;;;4993568;28;20091;-60
2021/11/26 11:31:55;;;;;;;3.63;1.65;;;;;;;;;;5011836;28;20033;-62
2021/11/26 11:34:24;;;;;;;6.57;1.63;;;;;;;;;;5011551;28;20036;-60
2021/11/26 11:36:52;;;;;;;12.25;2.63;;;;;;;;;;5013933;28;20031;-60
2021/11/26 11:39:17;;;;;;;6.47;1.90;;;;;;;;;;5012018;28;20037;-60
2021/11/26 11:41:48;;;;;;;8.95;1.75;;;;;;;;;;5002358;28;20734;-62
2021/11/26 11:44:30;;;;;;;7.30;1.83;;;;;;;;;;4999298;28;21947;-61
2021/11/26 11:46:59;;;;;;;2.70;1.10;;;;;;;;;;5000935;28;20108;-60
2021/11/26 11:49:31;;;;;;;7.13;2.60;;;;;;;;;;5008137;28;20033;-60
2021/11/26 11:51:59;;;;;;;;;;;;;;;;;;5014365;28;20041;-59
2021/11/26 11:54:37;;;;;;;10.70;1.90;;;;;;;;;;4996624;28;19971;-59
2021/11/26 11:57:06;;;;;;;9.48;2.30;;;;;;;;;;5013763;28;20049;-62
2021/11/26 11:59:33;;;;;;;6.50;1.98;;;;;;;;;;4988714;28;20061;-61
2021/11/26 12:02:00;;;;;;;9.88;2.40;;;;;;;;;;4991760;28;20067;-61
2021/11/26 12:04:28;;;;;;;14.25;2.58;;;;;;;;;;5013049;28;20060;-59
2021/11/26 12:06:58;;;;;;;10.13;1.98;;;;;;;;;;5011745;28;20530;-61
2021/11/26 12:09:27;;;;;;;10.32;1.88;;;;;;;;;;4995161;28;20038;-61
2021/11/26 12:12:12;;;;;;;5.47;2.33;;;;;;;;;;4990078;28;20564;-61
2021/11/26 12:15:04;;;;;;;22.02;3.25;;;;;;;;;;5008235;28;20053;-60
2021/11/26 12:17:38;;;;;;;16.77;2.58;;;;;;;;;;5009379;28;20045;-59
2021/11/26 12:20:14;;;;;;;12.50;2.65;;;;;;;;;;5011614;28;20029;-61
2021/11/26 12:22:46;;;;;;;14.30;2.80;;;;;;;;;;4990583;28;20037;-60
2021/11/26 12:25:28;;;;;;;12.18;3.38;;;;;;;;;;4992398;28;21975;-61
2021/11/26 12:27:58;;;;;;;12.35;2.90;;;;;;;;;;5012597;28;20033;-60
2021/11/26 12:30:24;;;;;;;8.43;2.75;;;;;;;;;;5009318;28;20033;-59
2021/11/26 12:32:52;;;;;;;16.38;3.65;;;;;;;;;;5011809;28;20025;-60
2021/11/26 12:35:18;;;;;;;7.88;3.33;;;;;;;;;;5013230;28;20090;-61
2021/11/26 12:37:52;;;;;;;16.83;3.95;;;;;;;;;;5014409;28;20025;-62
2021/11/26 12:40:26;;;;;;;14.95;4.45;;;;;;;;;;4995232;28;20033;-62
2021/11/26 12:43:02;;;;;;;12.77;4.50;;;;;;;;;;5015807;28;20042;-60
2021/11/26 12:45:33;;;;;;;13.23;3.78;;;;;;;;;;5016331;28;20056;-61
2021/11/26 12:48:08;;;;;;;9.65;3.83;;;;;;;;;;4980002;28;20040;-61
2021/11/26 12:53:23;;;;;;;15.88;4.50;;;;;;;;;;5018351;28;20137;-60
2021/11/26 12:55:54;;;;;;;10.40;4.07;;;;;;;;;;4996628;28;20029;-61
2021/11/26 12:58:23;;;;;;;15.82;4.18;;;;;;;;;;5012464;28;20032;-62
2021/11/26 13:00:55;;;;;;;12.65;3.83;;;;;;;;;;4997738;28;20070;-62
2021/11/26 13:03:23;;;;;;;14.02;4.50;;;;;;;;;;5013026;28;20030;-62
2021/11/26 13:05:59;;;;;;;10.50;4.65;;;;;;;;;;5018456;28;20099;-62
2021/11/26 13:08:28;;;;;;;17.70;4.05;;;;;;;;;;5013950;28;20182;-61
2021/11/26 13:10:55;;;;;;;12.70;3.90;;;;;;;;;;4993511;28;20025;-62
2021/11/26 13:13:22;;;;;;;11.88;4.10;;;;;;;;;;5014538;28;20622;-61
2021/11/26 13:15:49;;;;;;;9.77;3.85;;;;;;;;;;4995552;28;20036;-61
2021/11/26 13:18:16;;;;;;;12.90;4.03;;;;;;;;;;4980525;28;20036;-61
2021/11/26 13:20:46;;;;;;;8.05;3.60;;;;;;;;;;4996818;28;20052;-61
2021/11/26 13:23:13;;;;;;;11.38;3.58;;;;;;;;;;5013620;28;20705;-62
2021/11/26 13:25:43;;;;;;;12.55;3.42;;;;;;;;;;4998355;28;20020;-60
2021/11/26 13:28:10;;;;;;;13.25;3.22;;;;;;;;;;5011516;28;20037;-61
2021/11/26 13:30:36;;;;;;;14.95;4.70;;;;;;;;;;5016259;28;20065;-61
2021/11/26 13:33:05;;;;;;;7.68;3.20;;;;;;;;;;5013572;28;20149;-63
2021/11/26 13:35:33;;;;;;;9.77;3.42;;;;;;;;;;4991463;28;20535;-61
2021/11/26 13:38:03;;;;;;;11.13;3.47;;;;;;;;;;4978136;28;20025;-63
2021/11/26 13:40:38;;;;;;;7.95;2.97;;;;;;;;;;5014629;28;20033;-61
2021/11/26 13:43:07;;;;;;;6.40;3.60;;;;;;;;;;4997999;28;20037;-61
2021/11/26 13:45:36;;;;;;;9.68;3.97;;;;;;;;;;4996738;28;20124;-61
2021/11/26 13:48:05;;;;;;;7.53;3.45;;;;;;;;;;4996242;28;20045;-61
2021/11/26 13:50:39;;;;;;;11.05;3.17;;;;;;;;;;4994411;28;20048;-62
2021/11/26 13:53:05;;;;;;;21.73;2.88;;;;;;;;;;5015526;28;20905;-60
2021/11/26 13:55:32;;;;;;;15.85;3.78;;;;;;;;;;5012359;28;20033;-62
2021/11/26 13:58:13;;;;;;;9.82;3.47;;;;;;;;;;5015734;28;20044;-61
2021/11/26 14:00:56;;;;;;;8.07;3.65;;;;;;;;;;4997288;28;20036;-62
2021/11/26 14:03:34;;;;;;;10.98;3.60;;;;;;;;;;4979005;28;20107;-63
2021/11/26 14:06:10;;;;;;;19.85;3.50;;;;;;;;;;5014653;28;20148;-62
2021/11/26 14:08:52;;;;;;;8.38;3.47;;;;;;;;;;5014637;28;20175;-61
2021/11/26 14:11:29;;;;;;;11.52;2.88;;;;;;;;;;5014403;28;20037;-64
2021/11/26 14:13:57;;;;;;;4.80;2.55;;;;;;;;;;4993719;28;20132;-63
2021/11/26 14:16:23;;;;;;;13.30;3.50;;;;;;;;;;4993461;28;20835;-63
2021/11/26 14:18:51;;;;;;;6.25;3.08;;;;;;;;;;5014188;28;20050;-62
2021/11/26 14:21:18;;;;;;;8.98;2.83;;;;;;;;;;4995300;28;20021;-63
2021/11/26 14:23:58;;;;;;;13.32;3.58;;;;;;;;;;4994514;28;20037;-65
2021/11/26 14:26:26;;;;;;;6.15;2.92;;;;;;;;;;4996215;28;20135;-61
2021/11/26 14:29:08;;;;;;;6.63;2.60;;;;;;;;;;5014209;28;20078;-63
2021/11/26 14:31:36;;;;;;;8.82;3.28;;;;;;;;;;5015380;28;20030;-63
2021/11/26 14:34:04;;;;;;;12.52;3.88;;;;;;;;;;5016430;28;20037;-62
2021/11/26 14:36:32;;;;;;;5.88;2.95;;;;;;;;;;5012267;28;20108;-61
2021/11/26 14:39:00;;;;;;;14.63;3.45;;;;;;;;;;4992475;28;20029;-63
2021/11/26 14:41:28;;;;;;;9.52;4.13;;;;;;;;;;4991247;28;20029;-63
2021/11/26 14:44:24;;;;;;;12.77;3.53;;;;;;;;;;4983990;28;20058;-63
2021/11/26 14:46:56;;;;;;;18.15;3.95;;;;;;;;;;4988663;28;21074;-61
2021/11/26 14:49:34;;;;;;;14.52;4.82;;;;;;;;;;5007245;28;20107;-61
2021/11/26 14:52:01;;;;;;;9.45;4.03;;;;;;;;;;4990255;28;20031;-61
2021/11/26 14:54:32;;;;;;;9.70;4.50;;;;;;;;;;5009753;28;20459;-61
2021/11/26 14:56:58;;;;;;;24.85;4.78;;;;;;;;;;4988958;28;20025;-59
2021/11/26 14:59:28;;;;;;;11.15;4.60;;;;;;;;;;5003985;28;20029;-58
2021/11/26 15:01:56;;;;;;;8.40;4.38;;;;;;;;;;5011018;28;20079;-59
2021/11/26 15:04:24;;;;;;;17.17;5.53;;;;;;;;;;4994653;28;20044;-59
2021/11/26 15:06:52;;;;;;;6.80;4.85;;;;;;;;;;5013459;28;20065;-59
2021/11/26 15:09:18;;;;;;;8.60;5.10;;;;;;;;;;5010678;28;20331;-58
2021/11/26 15:11:46;;;;;;;9.73;4.47;;;;;;;;;;4992724;28;20033;-58
2021/11/26 15:14:15;;;;;;;26.85;5.05;;;;;;;;;;5009651;28;20045;-58
2021/11/26 15:16:43;;;;;;;7.78;4.50;;;;;;;;;;4977527;28;20105;-57
2021/11/26 15:19:08;;;;;;;11.18;4.97;;;;;;;;;;4982812;28;20052;-57
2021/11/26 15:21:37;;;;;;;13.85;5.38;;;;;;;;;;5007124;28;20037;-57
2021/11/26 15:24:07;;;;;;;17.60;5.35;;;;;;;;;;5003103;28;20039;-57